Time;durP1;ratioP1;P1;durP2;ratioP2;P2;SDS_P1;SDS_P2;PMS_P1;PMS_P2;Temp;Humidity;BMP_temperature;BMP_pressure;BME280_temperature;BME280_humidity;BME280_pressure;Samples;Min_cycle;Max_cycle;Signal;HPM_P1;HPM_P2
2023/07/21 00:00:21;;;;;;;3.17;2.87;;;;;;;19.64;95.18;99629.47;5040723;28;20265;-68
2023/07/21 00:02:47;;;;;;;4.40;2.27;;;;;;;19.62;96.54;99633.19;5038001;28;20188;-71
2023/07/21 00:05:16;;;;;;;2.80;2.47;;;;;;;19.59;97.05;99629.13;5047875;28;20190;-70
2023/07/21 00:07:44;;;;;;;3.30;2.40;;;;;;;19.57;97.28;99628.44;5036388;28;20197;-75
2023/07/21 00:10:10;;;;;;;3.33;2.43;;;;;;;19.47;97.26;99627.72;5047670;28;20237;-71
2023/07/21 00:12:38;;;;;;;3.50;2.63;;;;;;;19.42;97.88;99619.56;5031138;28;20268;-73
2023/07/21 00:15:04;;;;;;;6.13;2.77;;;;;;;19.35;98.22;99616.75;5043252;28;20614;-76
2023/07/21 00:17:30;;;;;;;3.07;2.43;;;;;;;19.27;99.30;99621.88;5032023;28;20210;-73
2023/07/21 00:19:58;;;;;;;2.90;2.60;;;;;;;19.26;99.33;99618.44;5038872;28;20186;-73
2023/07/21 00:22:25;;;;;;;4.50;2.23;;;;;;;19.21;100.00;99622.50;5033373;28;20313;-73
2023/07/21 00:24:50;;;;;;;3.70;2.50;;;;;;;19.17;100.00;99619.38;5038404;28;20193;-73
2023/07/21 00:27:17;;;;;;;3.40;2.40;;;;;;;19.14;100.00;99617.09;5033609;28;20289;-80
2023/07/21 00:29:43;;;;;;;4.73;2.60;;;;;;;19.01;100.00;99617.44;5045518;28;20165;-72
2023/07/21 00:32:08;;;;;;;4.37;2.60;;;;;;;19.01;100.00;99612.25;5052690;28;20718;-72
2023/07/21 00:34:33;;;;;;;2.60;2.40;;;;;;;18.97;100.00;99614.31;5044534;28;20181;-75
2023/07/21 00:36:59;;;;;;;2.80;2.43;;;;;;;18.95;100.00;99607.63;5051546;28;20209;-73
2023/07/21 00:39:24;;;;;;;2.93;2.50;;;;;;;19.01;100.00;99610.47;5043498;28;20338;-70
2023/07/21 00:41:52;;;;;;;3.97;2.50;;;;;;;18.96;100.00;99611.88;5048528;28;20650;-72
2023/07/21 00:44:18;;;;;;;4.87;2.90;;;;;;;18.87;100.00;99610.97;5041269;28;20240;-76
2023/07/21 00:46:43;;;;;;;3.67;2.43;;;;;;;18.85;100.00;99624.13;5044400;28;20181;-77
2023/07/21 00:49:09;;;;;;;2.97;2.63;;;;;;;18.82;100.00;99627.03;5038276;28;20189;-75
2023/07/21 00:51:34;;;;;;;9.93;2.50;;;;;;;18.78;100.00;99630.06;5040829;28;20689;-72
2023/07/21 00:54:00;;;;;;;4.07;3.00;;;;;;;18.65;100.00;99622.63;5040370;28;20574;-75
2023/07/21 00:56:26;;;;;;;6.10;3.07;;;;;;;18.14;100.00;99624.84;5047020;28;20957;-71
2023/07/21 00:58:52;;;;;;;4.87;2.97;;;;;;;17.58;100.00;99627.34;5033667;28;20193;-71
2023/07/21 01:01:17;;;;;;;7.00;3.53;;;;;;;17.31;100.00;99636.69;5036938;28;20278;-68
2023/07/21 01:03:43;;;;;;;7.50;3.77;;;;;;;17.20;100.00;99640.25;5044607;28;20174;-66
2023/07/21 01:06:10;;;;;;;4.80;4.23;;;;;;;16.94;100.00;99639.97;5050771;28;20619;-66
2023/07/21 01:08:36;;;;;;;6.43;4.10;;;;;;;16.75;100.00;99644.16;5049695;28;20197;-69
2023/07/21 01:11:02;;;;;;;7.93;4.17;;;;;;;16.72;100.00;99636.66;5042362;28;20224;-68
2023/07/21 01:13:29;;;;;;;4.73;4.20;;;;;;;16.62;100.00;99621.06;5055800;28;20627;-67
2023/07/21 01:15:56;;;;;;;5.40;4.53;;;;;;;16.47;100.00;99612.00;5053813;28;20181;-68
2023/07/21 01:18:23;;;;;;;7.37;4.77;;;;;;;16.12;100.00;99615.88;5049747;28;20255;-67
2023/07/21 01:20:49;;;;;;;5.60;4.50;;;;;;;15.90;100.00;99615.13;5046626;28;20233;-66
2023/07/21 01:23:27;;;;;;;4.83;4.43;;;;;;;15.94;100.00;99607.91;5049358;28;20195;-67
2023/07/21 01:25:53;;;;;;;5.73;5.10;;;;;;;15.99;100.00;99605.75;5049127;28;20216;-68
2023/07/21 01:28:20;;;;;;;5.47;4.80;;;;;;;16.03;100.00;99601.94;5049486;28;20178;-67
2023/07/21 01:30:48;;;;;;;5.03;4.63;;;;;;;16.03;100.00;99601.94;5046558;28;20293;-67
2023/07/21 01:33:17;;;;;;;5.97;5.37;;;;;;;16.16;100.00;99609.47;5029604;28;20182;-67
2023/07/21 01:35:43;;;;;;;5.27;4.83;;;;;;;16.24;100.00;99601.84;5043957;28;20177;-68
2023/07/21 01:38:10;;;;;;;5.93;5.10;;;;;;;16.30;100.00;99611.72;5051641;28;20209;-67
2023/07/21 01:40:36;;;;;;;5.87;5.20;;;;;;;16.23;100.00;99613.19;5048245;28;20274;-67
2023/07/21 01:43:01;;;;;;;6.20;5.07;;;;;;;16.26;100.00;99606.91;5052503;28;20198;-65
2023/07/21 01:45:27;;;;;;;6.20;5.60;;;;;;;16.35;100.00;99602.69;5054380;28;20193;-67
2023/07/21 01:47:55;;;;;;;6.23;5.63;;;;;;;16.44;100.00;99594.13;5042130;28;20535;-67
2023/07/21 01:50:21;;;;;;;6.33;5.83;;;;;;;16.41;100.00;99589.19;5045711;28;20181;-70
2023/07/21 01:52:47;;;;;;;6.47;5.87;;;;;;;16.53;100.00;99584.69;5027449;28;20597;-67
2023/07/21 01:55:23;;;;;;;6.43;5.63;;;;;;;16.57;100.00;99586.06;5052756;28;20262;-68
2023/07/21 01:57:54;;;;;;;6.83;5.60;;;;;;;16.61;100.00;99584.84;5053388;28;20204;-67
2023/07/21 02:00:20;;;;;;;6.20;5.47;;;;;;;16.71;100.00;99585.69;5037726;28;20517;-66
2023/07/21 02:02:47;;;;;;;6.53;5.93;;;;;;;16.67;100.00;99578.28;5053401;28;20189;-66
2023/07/21 02:05:20;;;;;;;6.90;6.20;;;;;;;16.64;100.00;99565.59;5052188;28;20273;-68
2023/07/21 02:07:46;;;;;;;6.33;5.80;;;;;;;16.67;100.00;99573.09;5053172;28;20208;-68
2023/07/21 02:10:12;;;;;;;7.37;5.60;;;;;;;16.78;100.00;99573.78;5044100;28;20636;-67
2023/07/21 02:12:38;;;;;;;7.83;5.87;;;;;;;16.88;100.00;99575.56;5043112;28;20636;-68
2023/07/21 02:15:05;;;;;;;6.73;6.03;;;;;;;16.89;100.00;99577.19;5052174;28;20268;-67
2023/07/21 02:17:31;;;;;;;6.40;5.60;;;;;;;16.79;100.00;99577.19;5039175;28;20232;-67
2023/07/21 02:19:56;;;;;;;5.97;5.47;;;;;;;16.62;100.00;99576.94;5053307;28;20629;-67
2023/07/21 02:22:21;;;;;;;6.00;5.37;;;;;;;16.57;100.00;99568.72;5058578;28;20227;-68
2023/07/21 02:24:47;;;;;;;5.93;5.37;;;;;;;16.70;100.00;99559.84;5053483;28;20181;-69
2023/07/21 02:27:12;;;;;;;6.83;5.53;;;;;;;16.78;100.00;99565.16;5054111;28;20186;-68
2023/07/21 02:29:37;;;;;;;7.57;5.57;;;;;;;16.82;100.00;99566.56;5053555;28;20186;-67
2023/07/21 02:32:02;;;;;;;6.40;5.80;;;;;;;16.94;100.00;99565.47;5046845;28;20217;-68
2023/07/21 02:34:29;;;;;;;6.33;5.73;;;;;;;17.03;100.00;99568.19;5052945;28;20181;-68
2023/07/21 02:36:55;;;;;;;7.83;5.90;;;;;;;17.05;100.00;99567.09;5052575;28;20205;-68
2023/07/21 02:39:20;;;;;;;6.30;5.30;;;;;;;16.97;100.00;99560.94;5059246;28;20915;-68
2023/07/21 02:41:46;;;;;;;6.80;6.10;;;;;;;16.99;100.00;99566.84;5063803;28;20306;-68
2023/07/21 02:44:11;;;;;;;5.90;5.40;;;;;;;16.95;100.00;99563.69;5043520;28;20657;-70
2023/07/21 02:46:36;;;;;;;10.67;6.03;;;;;;;16.98;100.00;99562.59;5053669;28;20319;-69
2023/07/21 02:49:02;;;;;;;6.17;5.57;;;;;;;16.89;100.00;99556.41;5051912;28;20260;-69
2023/07/21 02:51:27;;;;;;;6.93;5.60;;;;;;;16.88;100.00;99552.16;5054374;28;20707;-69
2023/07/21 02:53:52;;;;;;;7.90;5.87;;;;;;;16.94;100.00;99549.88;5044536;28;20180;-67
2023/07/21 02:56:18;;;;;;;6.40;5.67;;;;;;;16.94;100.00;99554.25;5052869;28;20193;-68
2023/07/21 02:58:43;;;;;;;6.23;5.63;;;;;;;16.90;100.00;99547.66;5053206;28;20621;-69
2023/07/21 03:01:09;;;;;;;7.93;5.73;;;;;;;16.75;100.00;99553.28;5041975;28;20212;-68
2023/07/21 03:03:35;;;;;;;6.50;5.77;;;;;;;16.67;100.00;99550.56;5059779;28;20178;-68
2023/07/21 03:06:01;;;;;;;6.00;5.50;;;;;;;16.67;100.00;99547.97;5053000;28;20192;-68
2023/07/21 03:08:28;;;;;;;6.27;5.50;;;;;;;16.69;100.00;99546.03;5053061;28;20712;-70
2023/07/21 03:10:55;;;;;;;6.23;5.63;;;;;;;16.61;100.00;99544.13;5044509;28;20335;-71
2023/07/21 03:13:21;;;;;;;7.33;6.03;;;;;;;16.67;100.00;99542.78;5060875;28;20240;-68
2023/07/21 03:15:47;;;;;;;7.10;6.30;;;;;;;16.72;100.00;99548.38;5042499;28;20228;-69
2023/07/21 03:18:12;;;;;;;6.27;5.67;;;;;;;16.75;100.00;99555.06;5050933;28;20603;-69
2023/07/21 03:20:38;;;;;;;7.47;5.97;;;;;;;16.74;100.00;99554.22;5044997;28;20367;-69
2023/07/21 03:23:03;;;;;;;5.80;5.30;;;;;;;16.71;100.00;99554.50;5051907;28;20190;-70
2023/07/21 03:25:28;;;;;;;6.20;5.70;;;;;;;16.62;100.00;99555.31;5052436;28;20652;-69
2023/07/21 03:27:53;;;;;;;6.43;5.83;;;;;;;16.64;100.00;99561.19;5052944;28;20256;-69
2023/07/21 03:30:19;;;;;;;7.63;5.57;;;;;;;16.63;100.00;99562.16;5023071;28;20181;-69
2023/07/21 03:32:47;;;;;;;6.60;5.83;;;;;;;16.64;100.00;99560.41;5064738;28;20192;-68
2023/07/21 03:35:14;;;;;;;5.30;4.80;;;;;;;16.56;100.00;99561.88;5052174;28;20535;-70
2023/07/21 03:37:40;;;;;;;6.43;5.73;;;;;;;16.32;100.00;99561.44;5052460;28;20640;-69
2023/07/21 03:40:06;;;;;;;6.77;6.00;;;;;;;16.36;100.00;99548.06;5042807;28;20188;-68
2023/07/21 03:42:31;;;;;;;6.80;4.87;;;;;;;16.54;100.00;99542.22;5065627;28;20217;-71
2023/07/21 03:44:56;;;;;;;6.17;5.57;;;;;;;16.62;100.00;99543.16;5048277;28;20261;-70
2023/07/21 03:47:22;;;;;;;6.03;5.23;;;;;;;16.67;100.00;99537.56;5044074;28;20193;-70
2023/07/21 03:49:47;;;;;;;7.00;5.20;;;;;;;16.60;100.00;99537.28;5052517;28;20186;-70
2023/07/21 03:52:13;;;;;;;6.23;5.10;;;;;;;16.54;100.00;99537.81;5056941;28;20226;-70
2023/07/21 03:54:39;;;;;;;7.10;5.20;;;;;;;16.46;100.00;99548.09;5051479;28;20267;-70
2023/07/21 03:57:04;;;;;;;6.73;5.43;;;;;;;16.64;100.00;99550.00;5052266;28;20279;-70
2023/07/21 03:59:29;;;;;;;5.97;5.10;;;;;;;16.65;100.00;99542.06;5050621;28;20357;-69
2023/07/21 04:01:55;;;;;;;6.13;5.60;;;;;;;16.67;100.00;99547.13;5055821;28;20333;-71
2023/07/21 04:04:21;;;;;;;6.07;5.47;;;;;;;16.77;100.00;99550.56;5050319;28;20212;-70
2023/07/21 04:06:46;;;;;;;6.30;5.33;;;;;;;16.87;100.00;99558.31;5052046;28;20252;-69
2023/07/21 04:09:14;;;;;;;5.50;5.00;;;;;;;16.94;100.00;99565.47;5052474;28;20187;-71
2023/07/21 04:11:41;;;;;;;7.80;5.70;;;;;;;16.93;100.00;99556.03;5047785;28;20594;-71
2023/07/21 04:14:06;;;;;;;6.30;5.70;;;;;;;16.94;100.00;99554.25;5033685;28;20279;-69
2023/07/21 04:16:32;;;;;;;7.17;5.27;;;;;;;16.96;100.00;99552.34;5051589;28;20574;-70
2023/07/21 04:18:58;;;;;;;6.60;5.67;;;;;;;16.99;100.00;99552.06;5051953;28;20189;-70
2023/07/21 04:21:23;;;;;;;6.70;6.10;;;;;;;16.94;100.00;99547.28;5043527;28;20220;-69
2023/07/21 04:23:48;;;;;;;6.50;5.53;;;;;;;16.89;100.00;99548.63;5053446;28;20181;-69
2023/07/21 04:26:15;;;;;;;6.70;6.00;;;;;;;16.89;100.00;99544.28;5051034;28;20177;-69
2023/07/21 04:28:41;;;;;;;5.97;5.47;;;;;;;16.75;100.00;99542.06;5050092;28;20173;-59
2023/07/21 04:31:08;;;;;;;6.27;5.60;;;;;;;16.72;100.00;99540.56;5045160;28;20308;-60
2023/07/21 04:33:35;;;;;;;7.97;6.37;;;;;;;16.77;100.00;99543.56;5049736;28;20230;-62
2023/07/21 04:36:00;;;;;;;6.40;5.80;;;;;;;16.76;100.00;99541.13;5037437;28;20216;-62
2023/07/21 04:38:25;;;;;;;6.77;6.07;;;;;;;16.72;100.00;99548.38;5050175;28;20221;-61
2023/07/21 04:40:52;;;;;;;7.10;6.07;;;;;;;16.78;100.00;99536.59;5046770;28;20228;-62
2023/07/21 04:43:17;;;;;;;5.70;5.20;;;;;;;16.81;100.00;99530.31;5060348;28;20258;-62
2023/07/21 04:45:43;;;;;;;6.57;5.50;;;;;;;16.57;100.00;99526.34;5050642;28;20174;-62
2023/07/21 04:48:08;;;;;;;6.73;6.03;;;;;;;16.66;100.00;99545.47;5051505;28;20199;-62
2023/07/21 04:50:33;;;;;;;6.53;5.93;;;;;;;16.88;100.00;99540.03;5044393;28;20220;-62
2023/07/21 04:53:01;;;;;;;6.20;5.53;;;;;;;16.81;100.00;99541.53;5062110;28;20587;-62
2023/07/21 04:55:27;;;;;;;6.53;5.93;;;;;;;17.02;100.00;99533.59;5050773;28;20265;-62
2023/07/21 04:57:52;;;;;;;6.97;5.93;;;;;;;17.01;100.00;99534.56;5051218;28;20296;-63
2023/07/21 05:00:18;;;;;;;7.70;5.93;;;;;;;17.02;100.00;99540.59;5042510;28;20211;-63
2023/07/21 05:02:43;;;;;;;6.37;5.87;;;;;;;17.25;100.00;99543.66;5064790;28;20185;-63
2023/07/21 05:05:09;;;;;;;6.37;5.77;;;;;;;17.18;100.00;99545.19;5050735;28;20242;-62
2023/07/21 05:07:34;;;;;;;6.77;5.70;;;;;;;17.12;100.00;99546.59;5050901;28;20663;-63
2023/07/21 05:09:59;;;;;;;5.47;4.97;;;;;;;17.23;100.00;99537.81;5051159;28;20173;-62
2023/07/21 05:12:25;;;;;;;8.43;5.93;;;;;;;17.54;100.00;99535.00;5057122;28;20221;-61
2023/07/21 05:14:50;;;;;;;7.23;6.03;;;;;;;17.64;100.00;99540.13;5053205;28;20556;-61
2023/07/21 05:17:17;;;;;;;6.13;5.63;;;;;;;17.66;100.00;99543.41;5055400;28;20213;-62
2023/07/21 05:19:43;;;;;;;7.27;5.90;;;;;;;17.78;100.00;99549.25;5055189;28;20189;-62
2023/07/21 05:22:09;;;;;;;7.17;5.80;;;;;;;17.79;100.00;99556.91;5060136;28;20228;-61
2023/07/21 05:24:34;;;;;;;7.17;5.93;;;;;;;17.76;100.00;99562.38;5054364;28;20538;-61
2023/07/21 05:26:59;;;;;;;6.53;5.83;;;;;;;17.81;100.00;99556.75;5054957;28;20246;-62
2023/07/21 05:29:24;;;;;;;5.63;5.10;;;;;;;17.98;100.00;99558.63;5054781;28;20177;-61
2023/07/21 05:31:52;;;;;;;8.10;5.93;;;;;;;18.03;100.00;99558.19;5057130;28;20248;-61
2023/07/21 05:34:17;;;;;;;9.57;5.93;;;;;;;18.02;100.00;99556.53;5054410;28;20185;-61
2023/07/21 05:36:42;;;;;;;7.60;5.37;;;;;;;18.11;100.00;99550.50;5054592;28;20211;-61
2023/07/21 05:39:08;;;;;;;8.43;5.50;;;;;;;18.06;100.00;99556.13;5054743;28;20251;-61
2023/07/21 05:41:33;;;;;;;6.73;5.17;;;;;;;18.01;100.00;99557.50;5044194;28;20221;-61
2023/07/21 05:43:58;;;;;;;5.67;4.53;;;;;;;18.19;100.00;99560.16;5045730;28;20173;-62
2023/07/21 05:46:24;;;;;;;5.10;4.60;;;;;;;18.30;100.00;99554.75;5052672;28;20247;-61
2023/07/21 05:48:50;;;;;;;7.37;5.50;;;;;;;18.23;100.00;99557.13;5054558;28;20640;-61
2023/07/21 05:51:17;;;;;;;5.33;4.83;;;;;;;18.50;100.00;99557.22;5053565;28;20228;-60
2023/07/21 05:53:42;;;;;;;7.40;5.40;;;;;;;18.67;100.00;99551.19;5058235;28;20180;-61
2023/07/21 05:56:08;;;;;;;6.47;5.13;;;;;;;18.64;100.00;99548.91;5054002;28;20182;-60
2023/07/21 05:58:36;;;;;;;4.70;3.83;;;;;;;18.82;100.00;99554.06;5053998;28;20182;-60
2023/07/21 06:01:02;;;;;;;3.90;3.60;;;;;;;18.74;100.00;99554.00;5046587;28;20240;-60
2023/07/21 06:03:28;;;;;;;5.30;3.67;;;;;;;19.12;100.00;99567.69;5045954;28;20184;-60
2023/07/21 06:05:53;;;;;;;4.37;4.03;;;;;;;19.28;100.00;99561.75;5046221;28;20335;-61
2023/07/21 06:08:18;;;;;;;4.83;4.03;;;;;;;19.48;100.00;99564.97;5045258;28;20280;-61
2023/07/21 06:10:44;;;;;;;5.53;4.20;;;;;;;19.66;100.00;99564.09;5039186;28;20224;-60
2023/07/21 06:13:10;;;;;;;7.67;4.37;;;;;;;19.70;100.00;99567.19;5045631;28;20546;-61
2023/07/21 06:15:36;;;;;;;5.53;4.00;;;;;;;19.58;100.00;99571.88;5053531;28;20515;-58
2023/07/21 06:18:03;;;;;;;6.23;4.20;;;;;;;19.63;100.00;99578.25;5053898;28;20237;-59
2023/07/21 06:20:28;;;;;;;4.77;4.10;;;;;;;19.85;100.00;99578.72;5046232;28;20330;-61
2023/07/21 06:22:53;;;;;;;5.00;4.20;;;;;;;19.94;100.00;99574.34;5062623;28;20264;-60
2023/07/21 06:25:19;;;;;;;6.83;4.50;;;;;;;20.35;100.00;99571.06;5051955;28;20588;-59
2023/07/21 06:27:46;;;;;;;5.47;4.37;;;;;;;20.23;100.00;99567.91;5053878;28;20181;-60
2023/07/21 06:30:13;;;;;;;7.40;4.17;;;;;;;20.12;100.00;99580.28;5042243;28;20185;-62
2023/07/21 06:32:40;;;;;;;4.87;4.40;;;;;;;20.34;100.00;99569.41;5059957;28;20178;-62
2023/07/21 06:35:06;;;;;;;4.80;4.30;;;;;;;20.33;100.00;99571.22;5053246;28;20174;-62
2023/07/21 06:37:31;;;;;;;4.20;3.80;;;;;;;20.40;100.00;99566.16;5053381;28;20205;-63
2023/07/21 06:39:57;;;;;;;3.70;3.40;;;;;;;20.77;100.00;99570.16;5053420;28;20239;-62
2023/07/21 06:42:22;;;;;;;3.93;3.50;;;;;;;21.14;100.00;99568.81;5058017;28;20295;-62
2023/07/21 06:44:48;;;;;;;3.50;3.27;;;;;;;21.11;100.00;99575.19;5053014;28;20185;-62
2023/07/21 06:47:14;;;;;;;5.17;3.77;;;;;;;21.37;100.00;99579.41;5053743;28;20250;-61
2023/07/21 06:49:39;;;;;;;5.43;3.97;;;;;;;21.34;100.00;99576.31;5053519;28;20276;-62
2023/07/21 06:52:06;;;;;;;4.43;3.77;;;;;;;21.66;100.00;99570.22;5058345;28;20311;-61
2023/07/21 06:54:31;;;;;;;3.77;3.47;;;;;;;21.85;100.00;99560.31;5038364;28;20559;-62
2023/07/21 06:56:58;;;;;;;4.10;3.50;;;;;;;21.63;100.00;99559.25;5051855;28;20211;-62
2023/07/21 06:59:24;;;;;;;4.97;3.03;;;;;;;21.86;100.00;99559.34;5052154;28;20667;-61
2023/07/21 07:01:49;;;;;;;9.50;3.53;;;;;;;21.54;100.00;99567.09;5034438;28;20223;-63
2023/07/21 07:04:14;;;;;;;4.50;3.00;;;;;;;21.72;100.00;99560.88;5054622;28;20181;-61
2023/07/21 07:06:40;;;;;;;5.43;3.10;;;;;;;22.15;100.00;99557.88;5052937;28;20180;-61
2023/07/21 07:09:07;;;;;;;4.73;3.10;;;;;;;22.79;98.09;99556.81;5051764;28;20169;-61
2023/07/21 07:11:32;;;;;;;4.03;2.90;;;;;;;22.91;95.66;99555.41;5053739;28;20224;-61
2023/07/21 07:13:57;;;;;;;3.47;3.17;;;;;;;22.99;93.75;99559.75;5057107;28;20293;-62
2023/07/21 07:16:22;;;;;;;3.87;3.00;;;;;;;23.17;92.06;99562.06;5052086;28;20208;-61
2023/07/21 07:18:47;;;;;;;3.47;3.00;;;;;;;23.27;94.92;99562.63;5058594;28;20625;-60
2023/07/21 07:21:13;;;;;;;2.97;2.47;;;;;;;22.98;94.82;99561.53;5047358;28;20245;-62
2023/07/21 07:23:38;;;;;;;4.93;2.50;;;;;;;23.97;87.93;99572.84;5044664;28;20185;-60
2023/07/21 07:26:05;;;;;;;4.00;2.70;;;;;;;24.73;83.25;99561.91;5052164;28;20733;-61
2023/07/21 07:28:30;;;;;;;3.78;2.67;;;;;;;24.77;85.19;99565.81;5052869;28;20185;-62
2023/07/21 07:30:55;;;;;;;3.80;2.75;;;;;;;25.22;81.35;99562.09;5028049;28;20553;-62
2023/07/21 07:33:20;;;;;;;2.75;2.47;;;;;;;25.85;78.27;99559.38;5060915;28;20192;-63
2023/07/21 07:35:50;;;;;;;4.45;2.30;;;;;;;24.67;80.10;99567.91;5051340;28;20181;-62
2023/07/21 07:38:20;;;;;;;2.25;2.13;;;;;;;24.48;80.10;99562.25;5052467;28;20212;-61
2023/07/21 07:40:47;;;;;;;4.40;2.50;;;;;;;24.24;80.64;99568.72;5046931;28;20307;-61
2023/07/21 07:43:12;;;;;;;3.03;2.70;;;;;;;24.09;82.13;99571.38;5061672;28;20190;-61
2023/07/21 07:45:38;;;;;;;3.42;2.28;;;;;;;23.63;81.88;99572.41;5051788;28;20183;-62
2023/07/21 07:48:03;;;;;;;2.15;1.95;;;;;;;23.60;84.50;99572.75;5052551;28;20181;-63
2023/07/21 07:50:28;;;;;;;10.20;7.00;;;;;;;23.45;82.31;99579.84;5045479;28;20300;-62
2023/07/21 07:52:54;;;;;;;2.70;2.37;;;;;;;23.17;81.23;99581.25;5063416;28;20188;-62
2023/07/21 07:55:20;;;;;;;4.40;2.33;;;;;;;23.53;82.77;99577.94;5051525;28;20571;-61
2023/07/21 07:57:46;;;;;;;6.10;1.93;;;;;;;23.39;80.85;99583.97;5052387;28;20266;-61
2023/07/21 08:00:14;;;;;;;2.00;1.80;;;;;;;23.21;81.06;99576.47;5043105;28;20603;-61
2023/07/21 08:02:39;;;;;;;2.93;2.40;;;;;;;23.04;83.12;99576.56;5053420;28;20212;-62
2023/07/21 08:05:05;;;;;;;2.20;2.00;;;;;;;23.34;79.17;99581.91;5050344;28;20275;-62
2023/07/21 08:07:30;;;;;;;3.77;2.00;;;;;;;23.63;78.81;99579.47;5051924;28;20184;-63
2023/07/21 08:09:55;;;;;;;4.70;1.90;;;;;;;23.81;73.18;99577.28;5051745;28;20279;-62
2023/07/21 08:12:20;;;;;;;2.30;2.10;;;;;;;23.62;72.46;99578.66;5047990;28;20295;-62
2023/07/21 08:14:46;;;;;;;2.27;2.03;;;;;;;23.60;77.01;99575.38;5050926;28;20213;-61
2023/07/21 08:17:11;;;;;;;5.07;2.30;;;;;;;23.98;75.52;99579.75;5051959;28;20216;-61
2023/07/21 08:19:36;;;;;;;4.93;2.20;;;;;;;24.16;76.33;99577.53;5051619;28;20188;-61
2023/07/21 08:22:05;;;;;;;2.15;1.95;;;;;;;24.43;73.17;99571.72;5056584;28;20232;-61
2023/07/21 08:24:30;;;;;;;2.40;1.97;;;;;;;24.44;68.64;99568.91;5050405;28;20170;-61
2023/07/21 08:26:56;;;;;;;3.40;1.70;;;;;;;24.04;73.50;99583.44;5051881;28;20189;-61
2023/07/21 08:29:21;;;;;;;2.33;2.10;;;;;;;23.60;74.72;99574.59;5051555;28;20451;-61
2023/07/21 08:31:47;;;;;;;5.17;2.30;;;;;;;23.24;73.55;99580.53;5054405;28;20596;-60
2023/07/21 08:34:12;;;;;;;3.43;2.23;;;;;;;23.50;76.94;99580.91;5049378;28;20188;-61
2023/07/21 08:36:37;;;;;;;3.07;2.23;;;;;;;23.55;74.68;99582.19;5051292;28;20197;-61
2023/07/21 08:39:02;;;;;;;3.53;2.43;;;;;;;22.85;77.86;99579.72;5050876;28;20671;-62
2023/07/21 08:41:28;;;;;;;3.13;1.80;;;;;;;22.73;80.25;99577.47;5037775;28;20229;-59
2023/07/21 08:43:55;;;;;;;3.50;2.30;;;;;;;22.94;80.23;99576.00;5039348;28;20196;-60
2023/07/21 08:46:22;;;;;;;3.17;2.00;;;;;;;23.23;78.58;99578.91;5047560;28;20642;-61
2023/07/21 08:48:49;;;;;;;4.07;2.40;;;;;;;23.09;80.49;99577.88;5050984;28;20738;-60
2023/07/21 08:51:14;;;;;;;2.83;2.40;;;;;;;23.31;78.88;99576.22;5042050;28;20229;-60
2023/07/21 08:53:40;;;;;;;2.37;2.07;;;;;;;23.21;77.72;99574.66;5057326;28;20181;-59
2023/07/21 08:56:05;;;;;;;2.57;1.77;;;;;;;23.53;81.71;99570.06;5050587;28;20234;-59
2023/07/21 08:58:30;;;;;;;4.40;2.00;;;;;;;23.71;77.34;99576.75;5051216;28;20217;-60
2023/07/21 09:00:57;;;;;;;2.90;1.97;;;;;;;23.65;75.64;99572.22;5039375;28;20277;-60
2023/07/21 09:03:28;;;;;;;2.60;1.90;;;;;;;23.78;74.01;99571.59;5059890;28;20314;-62
2023/07/21 09:05:56;;;;;;;2.83;2.40;;;;;;;24.01;73.75;99569.69;5050337;28;20200;-64
2023/07/21 09:08:23;;;;;;;2.50;2.30;;;;;;;24.02;71.94;99573.91;5050502;28;20656;-61
2023/07/21 09:10:48;;;;;;;3.03;2.30;;;;;;;24.22;71.86;99573.31;5047104;28;20249;-62
2023/07/21 09:13:15;;;;;;;2.80;2.27;;;;;;;23.99;70.39;99573.50;5046969;28;20643;-60
2023/07/21 09:15:41;;;;;;;3.13;2.03;;;;;;;23.92;72.74;99580.47;5049422;28;20177;-60
2023/07/21 09:18:06;;;;;;;3.17;2.27;;;;;;;24.27;68.85;99576.22;5047717;28;21049;-61
2023/07/21 09:20:33;;;;;;;4.47;2.43;;;;;;;24.76;67.24;99569.44;5030037;28;21111;-61
2023/07/21 09:22:58;;;;;;;6.20;2.38;;;;;;;24.56;66.51;99568.41;5046066;28;20200;-61
2023/07/21 09:25:24;;;;;;;2.88;2.17;;;;;;;24.96;69.56;99576.66;5038493;28;20181;-62
2023/07/21 09:27:54;;;;;;;4.47;2.63;;;;;;;24.77;63.61;99575.50;5037847;28;20244;-60
2023/07/21 09:30:20;;;;;;;4.38;2.95;;;;;;;23.97;67.66;99581.53;5028896;28;20564;-60
2023/07/21 09:32:45;;;;;;;3.92;2.40;;;;;;;23.84;75.50;99570.84;5060997;28;20268;-59
2023/07/21 09:35:11;;;;;;;3.58;2.42;;;;;;;24.10;83.83;99575.63;5038065;28;20182;-59
2023/07/21 09:37:38;;;;;;;3.38;2.92;;;;;;;25.04;81.22;99575.72;5040587;28;20231;-58
2023/07/21 09:40:06;;;;;;;3.75;2.55;;;;;;;25.80;62.64;99579.41;5031152;28;20261;-61
2023/07/21 09:42:35;;;;;;;5.80;2.78;;;;;;;26.40;64.76;99577.78;5063978;28;20217;-61
2023/07/21 09:45:00;;;;;;;6.05;2.03;;;;;;;27.10;62.14;99573.97;5049713;28;20197;-62
2023/07/21 09:47:25;;;;;;;5.57;2.50;;;;;;;27.35;58.46;99571.50;5050643;28;20181;-62
2023/07/21 09:49:53;;;;;;;4.60;2.00;;;;;;;27.14;53.91;99582.31;5050946;28;20655;-62
2023/07/21 09:52:20;;;;;;;6.78;2.47;;;;;;;26.32;59.66;99572.72;5053801;28;20229;-61
2023/07/21 09:54:48;;;;;;;7.90;2.63;;;;;;;27.38;55.53;99575.56;5050353;28;20178;-61
2023/07/21 09:57:20;;;;;;;4.03;2.35;;;;;;;27.35;49.25;99574.16;5040544;28;20209;-63
2023/07/21 09:59:49;;;;;;;17.13;3.65;;;;;;;27.19;51.33;99571.94;5050242;28;20181;-63
2023/07/21 10:02:15;;;;;;;4.47;1.73;;;;;;;27.13;52.26;99567.47;5057333;28;20274;-64
2023/07/21 10:04:42;;;;;;;2.47;1.55;;;;;;;27.71;43.09;99574.69;5053375;28;20272;-63
2023/07/21 10:07:09;;;;;;;2.28;1.60;;;;;;;27.48;43.90;99577.81;5054254;28;20193;-63
2023/07/21 10:09:35;;;;;;;2.47;1.92;;;;;;;27.41;44.17;99580.44;5054101;28;20185;-61
2023/07/21 10:12:12;;;;;;;5.25;1.60;;;;;;;26.89;45.64;99578.47;5045340;28;20216;-60
2023/07/21 10:14:38;;;;;;;2.78;1.88;;;;;;;26.47;47.53;99577.00;5048844;28;20223;-61
2023/07/21 10:17:05;;;;;;;5.78;1.90;;;;;;;26.01;50.87;99573.22;5052650;28;20293;-60
2023/07/21 10:19:38;;;;;;;3.00;1.85;;;;;;;25.60;50.93;99573.06;5050342;28;20189;-69
2023/07/21 10:22:03;;;;;;;2.22;1.55;;;;;;;25.51;50.51;99570.78;5044167;28;20229;-71
2023/07/21 10:24:32;;;;;;;2.40;1.75;;;;;;;25.22;56.65;99570.78;5052282;28;20200;-68
2023/07/21 10:27:02;;;;;;;4.40;1.63;;;;;;;25.34;58.79;99572.88;5054322;28;20366;-71
2023/07/21 10:29:28;;;;;;;2.00;1.73;;;;;;;25.82;54.93;99569.50;5052340;28;20226;-68
2023/07/21 10:31:55;;;;;;;3.17;1.88;;;;;;;26.00;56.43;99574.22;5057655;28;20217;-69
2023/07/21 10:34:41;;;;;;;2.63;1.92;;;;;;;25.70;54.72;99577.97;5051712;28;20193;-69
2023/07/21 10:37:07;;;;;;;4.15;1.98;;;;;;;25.80;53.07;99582.03;5053755;28;20197;-68
2023/07/21 10:39:38;;;;;;;4.45;1.90;;;;;;;25.49;56.98;99575.41;5052484;28;20194;-69
2023/07/21 10:42:06;;;;;;;3.10;1.98;;;;;;;25.31;55.80;99571.44;5042159;28;20221;-69
2023/07/21 10:44:36;;;;;;;9.18;2.25;;;;;;;24.66;61.09;99566.31;5051908;28;20184;-69
2023/07/21 10:47:01;;;;;;;4.25;1.73;;;;;;;24.52;59.86;99565.31;5052225;28;20189;-68
2023/07/21 10:49:27;;;;;;;3.75;1.83;;;;;;;24.65;59.78;99564.69;5041487;28;20228;-69
2023/07/21 10:51:52;;;;;;;1.88;1.33;;;;;;;25.01;58.53;99569.03;5050524;28;20232;-70
2023/07/21 10:54:18;;;;;;;4.13;2.00;;;;;;;25.16;58.23;99576.00;5046447;28;20496;-71
2023/07/21 10:56:48;;;;;;;3.08;2.10;;;;;;;24.52;57.75;99567.16;5052985;28;20262;-69
2023/07/21 10:59:15;;;;;;;2.10;1.90;;;;;;;24.01;60.48;99568.84;5052172;28;20255;-68
2023/07/21 11:01:45;;;;;;;4.73;2.17;;;;;;;24.41;63.64;99564.03;5030408;28;20614;-68
2023/07/21 11:04:13;;;;;;;2.83;1.90;;;;;;;24.70;61.75;99561.50;5042971;28;20328;-69
2023/07/21 11:06:43;;;;;;;4.20;1.65;;;;;;;24.61;60.66;99566.00;5051787;28;20177;-69
2023/07/21 11:09:11;;;;;;;2.28;1.73;;;;;;;24.28;60.86;99569.16;5051431;28;20180;-69
2023/07/21 11:11:38;;;;;;;2.22;1.80;;;;;;;24.05;63.31;99564.88;5043805;28;20217;-68
2023/07/21 11:14:03;;;;;;;4.70;1.90;;;;;;;24.48;62.15;99562.25;5050973;28;20222;-69
2023/07/21 11:16:28;;;;;;;3.53;1.90;;;;;;;24.61;58.04;99561.59;5038058;28;20279;-69
2023/07/21 11:18:54;;;;;;;3.03;1.90;;;;;;;24.27;61.87;99560.44;5050099;28;20201;-69
2023/07/21 11:21:19;;;;;;;2.47;1.77;;;;;;;24.80;60.49;99554.09;5044218;28;20258;-70
2023/07/21 11:23:45;;;;;;;1.98;1.70;;;;;;;25.34;57.25;99557.91;5058279;28;20663;-70